createdAt,value
2019-02-27T05:00:40.369Z,69.02
2019-02-27T05:01:40.322Z,68.61
2019-02-27T05:02:40.320Z,68.19
2019-02-27T05:03:40.302Z,68.30
2019-02-27T05:04:40.308Z,68.68
2019-02-27T05:05:41.418Z,68.40
2019-02-27T05:06:40.274Z,68.51
2019-02-27T05:07:40.260Z,68.61
2019-02-27T05:08:40.251Z,67.88
2019-02-27T05:09:40.261Z,67.78
2019-02-27T05:10:40.621Z,67.34
2019-02-27T05:11:40.221Z,66.82
2019-02-27T05:12:40.203Z,66.96
2019-02-27T05:13:40.193Z,67.75
2019-02-27T05:14:40.218Z,67.34
2019-02-27T05:15:40.172Z,67.00
2019-02-27T05:16:40.175Z,67.34
2019-02-27T05:17:40.150Z,66.93
2019-02-27T05:18:40.140Z,66.93
2019-02-27T05:19:40.131Z,67.65
2019-02-27T05:20:40.146Z,66.93
2019-02-27T05:21:40.109Z,66.41
2019-02-27T05:22:40.117Z,66.00
2019-02-27T05:23:40.095Z,65.61
2019-02-27T05:24:40.963Z,65.69
2019-02-27T05:25:47.198Z,66.82
2019-02-27T05:26:40.063Z,66.93
2019-02-27T05:27:40.047Z,66.44
2019-02-27T05:28:40.038Z,66.41
2019-02-27T05:29:40.025Z,66.10
2019-02-27T05:30:40.043Z,66.44
2019-02-27T05:31:40.015Z,65.92
2019-02-27T05:32:40.002Z,65.82
2019-02-27T05:33:40.015Z,66.20
2019-02-27T05:34:39.977Z,65.92
2019-02-27T05:35:40.010Z,65.69
2019-02-27T05:36:39.963Z,65.58
2019-02-27T05:37:39.944Z,65.92
2019-02-27T05:38:41.079Z,66.00
2019-02-27T05:39:39.943Z,66.03
2019-02-27T05:40:39.956Z,66.03
2019-02-27T05:41:39.905Z,65.89
2019-02-27T05:42:39.899Z,66.00
2019-02-27T05:43:39.884Z,66.00
2019-02-27T05:44:39.888Z,66.00
2019-02-27T05:45:39.883Z,65.37
2019-02-27T05:46:39.855Z,66.00
2019-02-27T05:47:44.683Z,65.69
2019-02-27T05:48:40.829Z,65.72
2019-02-27T05:49:39.823Z,65.48
2019-02-27T05:50:39.829Z,65.06
2019-02-27T05:51:39.814Z,65.37
2019-02-27T05:52:39.787Z,65.61
2019-02-27T05:53:39.788Z,66.23
2019-02-27T05:54:39.779Z,66.03
2019-02-27T05:55:39.821Z,65.72
2019-02-27T05:56:39.769Z,65.58
2019-02-27T05:57:39.747Z,66.13
2019-02-27T05:58:39.736Z,66.75
2019-02-27T05:59:39.716Z,66.99
2019-02-27T06:00:39.729Z,66.99
2019-02-27T06:01:39.702Z,66.06
2019-02-27T06:02:41.902Z,65.72
2019-02-27T06:03:40.675Z,66.06
2019-02-27T06:04:39.665Z,65.54
2019-02-27T06:05:39.676Z,65.23
2019-02-27T06:06:39.642Z,64.81
2019-02-27T06:07:39.634Z,64.61
2019-02-27T06:08:39.632Z,64.48
2019-02-27T06:09:41.459Z,64.58
2019-02-27T06:10:39.628Z,64.61
2019-02-27T06:11:39.594Z,64.81
2019-02-27T06:12:40.878Z,65.75
2019-02-27T06:13:39.569Z,64.92
2019-02-27T06:14:39.561Z,65.23
2019-02-27T06:15:39.571Z,65.33
2019-02-27T06:16:40.854Z,65.44
2019-02-27T06:17:43.412Z,65.12
2019-02-27T06:18:39.518Z,65.44
2019-02-27T06:19:39.511Z,65.33
2019-02-27T06:20:41.938Z,65.75
2019-02-27T06:21:39.495Z,65.44
2019-02-27T06:22:39.478Z,65.54
2019-02-27T06:23:39.470Z,64.81
2019-02-27T06:24:39.453Z,65.36
2019-02-27T06:25:39.466Z,65.36
2019-02-27T06:26:39.435Z,65.57
2019-02-27T06:27:39.934Z,65.23
2019-02-27T06:28:39.417Z,64.92
2019-02-27T06:29:39.403Z,65.12
2019-02-27T06:30:39.415Z,64.81
2019-02-27T06:31:39.604Z,64.40
2019-02-27T06:32:39.372Z,64.30
2019-02-27T06:33:39.371Z,64.61
2019-02-27T06:34:39.354Z,63.89
2019-02-27T06:35:39.386Z,63.99
2019-02-27T06:36:42.789Z,63.78
2019-02-27T06:37:39.334Z,64.20
2019-02-27T06:38:39.311Z,64.09
2019-02-27T06:39:39.304Z,63.99
2019-02-27T06:40:42.064Z,63.78
2019-02-27T06:41:40.002Z,63.78
2019-02-27T06:42:39.269Z,63.89
2019-02-27T06:43:39.261Z,63.89
2019-02-27T06:44:39.866Z,63.47
2019-02-27T06:45:39.240Z,63.06
2019-02-27T06:46:39.240Z,63.26
2019-02-27T06:47:39.243Z,62.85
2019-02-27T06:48:43.143Z,62.54
2019-02-27T06:49:39.199Z,62.23
2019-02-27T06:50:39.203Z,61.69
2019-02-27T06:51:39.194Z,61.17
2019-02-27T06:52:40.180Z,61.07
2019-02-27T06:53:39.152Z,61.35
2019-02-27T06:54:39.152Z,61.24
2019-02-27T06:55:39.131Z,61.24
2019-02-27T06:56:39.151Z,60.93
2019-02-27T06:57:41.284Z,60.08
2019-02-27T06:58:39.102Z,60.28
2019-02-27T06:59:39.102Z,60.60
2019-02-27T07:00:39.083Z,60.39
2019-02-27T07:01:39.096Z,59.95
2019-02-27T07:02:39.059Z,60.60
2019-02-27T07:03:39.056Z,60.47
2019-02-27T07:04:39.623Z,59.23
2019-02-27T07:05:39.027Z,59.02
2019-02-27T07:06:39.046Z,58.81
2019-02-27T07:07:39.011Z,59.02
2019-02-27T07:08:38.994Z,58.61
2019-02-27T07:09:38.991Z,58.61
2019-02-27T07:10:38.988Z,58.50
2019-02-27T07:11:38.968Z,58.81
2019-02-27T07:12:38.983Z,58.71
2019-02-27T07:13:38.942Z,58.50
2019-02-27T07:14:39.833Z,58.61
2019-02-27T07:15:38.928Z,58.69
2019-02-27T07:16:38.936Z,58.17
2019-02-27T07:17:38.902Z,58.27
2019-02-27T07:18:41.480Z,58.17
2019-02-27T07:19:38.881Z,58.06
2019-02-27T07:20:38.871Z,57.96
2019-02-27T07:21:38.896Z,58.14
2019-02-27T07:22:38.864Z,57.93
2019-02-27T07:23:38.844Z,58.14
2019-02-27T07:24:38.842Z,57.73
2019-02-27T07:25:41.980Z,56.49
2019-02-27T07:26:38.834Z,56.88
2019-02-27T07:27:38.801Z,56.80
2019-02-27T07:28:43.166Z,57.81
2019-02-27T07:29:38.780Z,56.67
2019-02-27T07:30:39.761Z,56.77
2019-02-27T07:31:38.779Z,56.77
2019-02-27T07:32:38.753Z,56.67
2019-02-27T07:33:40.561Z,56.67
2019-02-27T07:34:38.747Z,56.57
2019-02-27T07:35:38.721Z,56.65
2019-02-27T07:36:39.218Z,56.67
2019-02-27T07:37:38.696Z,56.65
2019-02-27T07:38:38.690Z,56.54
2019-02-27T07:39:38.690Z,56.72
2019-02-27T07:40:42.734Z,56.00
2019-02-27T07:41:38.675Z,55.69
2019-02-27T07:42:38.645Z,55.59
2019-02-27T07:43:38.648Z,55.26
2019-02-27T07:44:38.627Z,55.98
2019-02-27T07:45:38.617Z,55.57
2019-02-27T07:46:38.621Z,55.54
2019-02-27T07:47:38.593Z,54.74
2019-02-27T07:48:38.582Z,54.43
2019-02-27T07:49:38.580Z,54.72
2019-02-27T07:50:38.560Z,54.41
2019-02-27T07:51:38.575Z,53.79
2019-02-27T07:52:38.548Z,53.56
2019-02-27T07:53:38.531Z,53.79
2019-02-27T07:54:38.523Z,53.35
2019-02-27T07:55:38.515Z,52.73
2019-02-27T07:56:38.527Z,52.64
2019-02-27T07:57:38.490Z,52.09
2019-02-27T07:58:38.480Z,52.40
2019-02-27T07:59:38.791Z,51.89
2019-02-27T08:00:38.461Z,50.86
2019-02-27T08:01:43.763Z,50.74
2019-02-27T08:02:39.442Z,50.74
2019-02-27T08:03:38.436Z,50.40
2019-02-27T08:04:38.421Z,50.71
2019-02-27T08:05:38.409Z,51.23
2019-02-27T08:06:38.521Z,50.99
2019-02-27T08:07:38.386Z,50.99
2019-02-27T08:08:38.385Z,50.77
2019-02-27T08:09:38.369Z,50.15
2019-02-27T08:10:38.361Z,49.82
2019-02-27T08:11:38.369Z,49.41
2019-02-27T08:12:38.365Z,48.80
2019-02-27T08:13:38.322Z,49.00
2019-02-27T08:14:38.313Z,48.90
2019-02-27T08:15:38.306Z,48.88
2019-02-27T08:16:38.298Z,49.08
2019-02-27T08:17:38.792Z,48.85
2019-02-27T08:18:38.336Z,48.22
2019-02-27T08:19:38.259Z,46.89
2019-02-27T08:20:38.248Z,46.58
2019-02-27T08:21:38.243Z,46.66
2019-02-27T08:22:38.270Z,46.53
2019-02-27T08:23:38.225Z,46.12
2019-02-27T08:24:38.207Z,46.41
2019-02-27T08:25:38.195Z,46.31
2019-02-27T08:26:38.184Z,46.29
2019-02-27T08:27:40.753Z,44.96
2019-02-27T08:28:38.166Z,45.17
2019-02-27T08:29:38.157Z,44.32
2019-02-27T08:30:38.144Z,44.12
2019-02-27T08:31:38.132Z,44.31
2019-02-27T08:32:38.144Z,44.31
2019-02-27T08:33:38.116Z,43.59
2019-02-27T08:34:38.101Z,43.37
2019-02-27T08:35:38.091Z,42.96
2019-02-27T08:36:38.075Z,42.73
2019-02-27T08:37:38.105Z,42.92
2019-02-27T08:38:38.060Z,42.71
2019-02-27T08:39:38.051Z,42.92
2019-02-27T08:40:38.035Z,42.69
2019-02-27T08:41:38.023Z,42.88
2019-02-27T08:42:40.249Z,42.76
2019-02-27T08:43:37.998Z,40.50
2019-02-27T08:44:38.005Z,40.60
2019-02-27T08:45:37.983Z,40.62
2019-02-27T08:46:37.967Z,40.52
2019-02-27T08:47:37.984Z,40.92
2019-02-27T08:48:37.943Z,40.80
2019-02-27T08:49:37.930Z,40.58
2019-02-27T08:50:37.931Z,40.25
2019-02-27T08:51:39.766Z,40.34
2019-02-27T08:52:37.953Z,40.14
2019-02-27T08:53:37.890Z,39.62
2019-02-27T08:54:37.876Z,39.42
2019-02-27T08:55:39.218Z,39.51
2019-02-27T08:56:37.855Z,38.66
2019-02-27T08:57:37.865Z,38.34
2019-02-27T08:58:37.853Z,38.64
2019-02-27T08:59:40.026Z,38.20
2019-02-27T09:00:37.812Z,37.25
2019-02-27T09:01:37.959Z,37.15
2019-02-27T09:02:39.654Z,36.46
2019-02-27T09:03:37.790Z,36.94
2019-02-27T09:04:37.782Z,36.85
2019-02-27T09:05:37.757Z,37.13
2019-02-27T09:06:37.748Z,35.82
2019-02-27T09:07:37.758Z,35.80
2019-02-27T09:08:37.732Z,35.38
2019-02-27T09:09:37.728Z,35.97
2019-02-27T09:10:37.702Z,35.95
2019-02-27T09:11:40.066Z,35.13
2019-02-27T09:12:37.715Z,35.01
2019-02-27T09:13:37.674Z,34.28
2019-02-27T09:14:37.667Z,33.88
2019-02-27T09:15:37.653Z,33.06
2019-02-27T09:16:37.638Z,33.15
2019-02-27T09:17:37.658Z,32.93
2019-02-27T09:18:37.617Z,32.73
2019-02-27T09:19:37.610Z,32.43
2019-02-27T09:20:37.612Z,32.29
2019-02-27T09:21:37.588Z,32.29
2019-02-27T09:22:37.612Z,32.01
2019-02-27T09:23:37.570Z,32.31
2019-02-27T09:24:37.551Z,31.19
2019-02-27T09:25:37.545Z,32.50
2019-02-27T09:26:37.548Z,32.26
2019-02-27T09:27:37.566Z,31.68
2019-02-27T09:28:37.516Z,32.08
2019-02-27T09:29:37.500Z,30.85
2019-02-27T09:30:37.486Z,31.63
2019-02-27T09:31:38.460Z,30.40
2019-02-27T09:32:37.493Z,29.50
2019-02-27T09:33:39.022Z,30.63
2019-02-27T09:34:37.454Z,30.63
2019-02-27T09:35:38.744Z,30.41
2019-02-27T09:36:37.422Z,30.22
2019-02-27T09:37:39.390Z,29.41
2019-02-27T09:38:37.403Z,29.91
2019-02-27T09:39:37.394Z,29.90
2019-02-27T09:40:38.941Z,29.68
2019-02-27T09:41:37.369Z,29.85
2019-02-27T09:42:37.383Z,28.85
2019-02-27T09:43:37.350Z,28.85
2019-02-27T09:44:37.338Z,28.74
2019-02-27T09:45:37.331Z,28.14
2019-02-27T09:46:37.334Z,27.91
2019-02-27T09:47:37.326Z,26.91
2019-02-27T09:48:37.297Z,27.61
2019-02-27T09:49:37.961Z,27.39
2019-02-27T09:50:37.274Z,26.40
2019-02-27T09:51:37.268Z,26.08
2019-02-27T09:52:37.301Z,26.06
2019-02-27T09:53:37.497Z,26.17
2019-02-27T09:54:37.233Z,26.16
2019-02-27T09:55:37.227Z,26.15
2019-02-27T09:56:37.212Z,25.65
2019-02-27T09:57:37.221Z,25.04
2019-02-27T09:58:37.221Z,25.42
2019-02-27T09:59:37.196Z,24.59
2019-02-27T10:00:37.170Z,23.99
2019-02-27T10:01:37.165Z,24.08
2019-02-27T10:02:37.149Z,23.36
2019-02-27T10:03:37.161Z,23.07
2019-02-27T10:04:37.127Z,23.07
2019-02-27T10:05:37.551Z,23.36
2019-02-27T10:06:37.107Z,22.93
2019-02-27T10:07:37.097Z,22.81
2019-02-27T10:08:37.106Z,22.69
2019-02-27T10:09:37.076Z,22.58
2019-02-27T10:10:37.070Z,22.27
2019-02-27T10:11:37.075Z,21.36
2019-02-27T10:12:37.045Z,21.95
2019-02-27T10:13:37.938Z,21.39
2019-02-27T10:14:37.033Z,21.71
2019-02-27T10:15:37.021Z,21.22
2019-02-27T10:16:37.007Z,22.03
2019-02-27T10:17:37.010Z,22.63
2019-02-27T10:18:37.004Z,22.74
2019-02-27T10:19:36.981Z,23.13
2019-02-27T10:20:37.875Z,22.83
2019-02-27T10:21:36.956Z,23.41
2019-02-27T10:22:36.943Z,22.42
2019-02-27T10:23:36.982Z,22.94
2019-02-27T10:24:37.592Z,23.03
2019-02-27T10:25:36.913Z,23.11
2019-02-27T10:26:36.903Z,22.72
2019-02-27T10:27:36.897Z,22.73
2019-02-27T10:28:39.617Z,23.23
2019-02-27T10:29:36.883Z,23.71
2019-02-27T10:30:36.863Z,22.16
2019-02-27T10:31:36.855Z,23.57
2019-02-27T10:32:37.259Z,23.96
2019-02-27T10:33:36.852Z,23.65
2019-02-27T10:34:36.835Z,23.54
2019-02-27T10:35:36.826Z,22.91
2019-02-27T10:36:39.228Z,22.02
2019-02-27T10:37:36.858Z,22.50
2019-02-27T10:38:40.191Z,22.80
2019-02-27T10:39:37.573Z,23.27
2019-02-27T10:40:36.768Z,22.29
2019-02-27T10:41:36.759Z,22.59
2019-02-27T10:42:36.785Z,22.49
2019-02-27T10:43:36.754Z,23.18
2019-02-27T10:44:36.720Z,22.56
2019-02-27T10:45:36.711Z,22.27
2019-02-27T10:46:36.709Z,22.45
2019-02-27T10:47:39.806Z,21.35
2019-02-27T10:48:36.949Z,21.42
2019-02-27T10:49:38.250Z,21.91
2019-02-27T10:50:36.659Z,21.91
2019-02-27T10:51:36.657Z,21.21
2019-02-27T10:52:36.646Z,21.50
2019-02-27T10:53:36.694Z,20.78
2019-02-27T10:54:37.073Z,21.09
2019-02-27T10:55:36.611Z,21.47
2019-02-27T10:56:36.600Z,21.17
2019-02-27T10:57:38.407Z,21.26
2019-02-27T10:58:36.603Z,20.56
2019-02-27T10:59:36.595Z,21.07
2019-02-27T11:00:36.571Z,21.19
2019-02-27T11:01:37.065Z,20.41
2019-02-27T11:02:36.542Z,21.12
2019-02-27T11:03:36.569Z,21.31
2019-02-27T11:04:38.937Z,21.20
2019-02-27T11:05:36.520Z,20.98
2019-02-27T11:06:37.702Z,20.57
2019-02-27T11:07:36.496Z,20.25
2019-02-27T11:08:36.502Z,21.02
2019-02-27T11:09:38.314Z,19.54
2019-02-27T11:10:36.466Z,19.35
2019-02-27T11:11:36.462Z,19.54
2019-02-27T11:12:36.443Z,18.74
2019-02-27T11:13:36.472Z,19.62
2019-02-27T11:14:36.425Z,19.42
2019-02-27T11:15:41.087Z,20.01
2019-02-27T11:16:37.418Z,19.12
2019-02-27T11:17:36.410Z,19.53
2019-02-27T11:18:36.410Z,19.21
2019-02-27T11:19:36.390Z,19.31
2019-02-27T11:20:36.366Z,18.92
2019-02-27T11:21:36.358Z,19.10
2019-02-27T11:22:36.348Z,19.59
2019-02-27T11:23:40.844Z,18.89
2019-02-27T11:24:37.326Z,19.18
2019-02-27T11:25:36.328Z,18.98
2019-02-27T11:26:36.312Z,18.99
2019-02-27T11:27:38.857Z,19.47
2019-02-27T11:28:36.309Z,18.19
2019-02-27T11:29:36.279Z,17.88
2019-02-27T11:30:37.063Z,17.69
2019-02-27T11:31:36.277Z,17.78
2019-02-27T11:32:36.251Z,18.08
2019-02-27T11:33:36.261Z,18.87
2019-02-27T11:34:36.260Z,18.50
2019-02-27T11:35:36.228Z,19.41
2019-02-27T11:36:39.079Z,19.41
2019-02-27T11:37:36.218Z,19.32
2019-02-27T11:38:36.198Z,19.29
2019-02-27T11:39:36.206Z,19.38
2019-02-27T11:40:36.172Z,19.26
2019-02-27T11:41:36.165Z,18.47
2019-02-27T11:42:36.156Z,17.79
2019-02-27T11:43:37.945Z,17.97
2019-02-27T11:44:36.197Z,18.46
2019-02-27T11:45:36.127Z,18.55
2019-02-27T11:46:38.217Z,18.55
2019-02-27T11:47:36.105Z,17.87
2019-02-27T11:48:36.097Z,17.88
2019-02-27T11:49:36.276Z,18.48
2019-02-27T11:50:36.082Z,19.59
2019-02-27T11:51:36.071Z,21.03
2019-02-27T11:52:36.070Z,21.47
2019-02-27T11:53:36.582Z,21.48
2019-02-27T11:54:36.058Z,21.47
2019-02-27T11:55:36.040Z,21.36
2019-02-27T11:56:36.020Z,20.64
2019-02-27T11:57:36.011Z,20.91
2019-02-27T11:58:38.468Z,19.60
2019-02-27T11:59:36.013Z,19.28
2019-02-27T12:00:35.993Z,19.18
2019-02-27T12:01:35.975Z,18.70
2019-02-27T12:02:37.774Z,19.09
2019-02-27T12:03:35.952Z,18.79
2019-02-27T12:04:35.967Z,18.49
2019-02-27T12:05:35.931Z,17.99
2019-02-27T12:06:35.939Z,17.88
2019-02-27T12:07:35.922Z,18.09
2019-02-27T12:08:35.907Z,18.10
2019-02-27T12:09:35.930Z,17.80
2019-02-27T12:10:35.886Z,19.68
2019-02-27T12:11:35.875Z,19.28
2019-02-27T12:12:35.865Z,18.70
2019-02-27T12:13:35.865Z,18.81
2019-02-27T12:14:35.863Z,19.00
2019-02-27T12:15:35.836Z,18.51
2019-02-27T12:16:35.826Z,19.18
2019-02-27T12:17:35.826Z,18.49
2019-02-27T12:18:35.819Z,18.88
2019-02-27T12:19:35.822Z,18.77
2019-02-27T12:20:35.787Z,17.79
2019-02-27T12:21:35.786Z,17.98
2019-02-27T12:22:35.991Z,18.27
2019-02-27T12:23:35.757Z,17.97
2019-02-27T12:24:35.778Z,18.37
2019-02-27T12:25:35.748Z,18.87
2019-02-27T12:26:37.541Z,19.27
2019-02-27T12:27:48.705Z,18.98
2019-02-27T12:28:36.711Z,19.08
2019-02-27T12:29:35.707Z,19.27
2019-02-27T12:30:37.497Z,18.89
2019-02-27T12:31:35.691Z,19.42
2019-02-27T12:32:35.671Z,20.32
2019-02-27T12:33:35.667Z,20.33
2019-02-27T12:34:37.088Z,19.64
2019-02-27T12:35:35.668Z,20.14
2019-02-27T12:36:35.633Z,20.23
2019-02-27T12:37:36.492Z,20.32
2019-02-27T12:38:35.783Z,20.82
2019-02-27T12:39:35.707Z,19.82
2019-02-27T12:40:35.622Z,19.54
2019-02-27T12:41:35.590Z,20.32
2019-02-27T12:42:37.322Z,19.44
2019-02-27T12:43:35.578Z,20.23
2019-02-27T12:44:35.566Z,19.36
2019-02-27T12:45:35.628Z,20.24
2019-02-27T12:46:36.978Z,20.14
2019-02-27T12:47:37.640Z,20.84
2019-02-27T12:48:36.516Z,20.84
2019-02-27T12:49:35.510Z,21.06
2019-02-27T12:50:35.521Z,20.59
2019-02-27T12:51:38.343Z,21.02
2019-02-27T12:52:35.488Z,21.95
2019-02-27T12:53:35.476Z,23.30
2019-02-27T12:54:35.465Z,24.63
2019-02-27T12:55:36.382Z,24.55
2019-02-27T12:56:35.441Z,24.96
2019-02-27T12:57:35.430Z,24.77
2019-02-27T12:58:35.419Z,25.38
2019-02-27T12:59:35.433Z,26.10
2019-02-27T13:00:35.424Z,26.22
2019-02-27T13:01:35.390Z,26.43
2019-02-27T13:02:35.916Z,27.24
2019-02-27T13:03:35.370Z,27.06
2019-02-27T13:04:35.359Z,27.15
2019-02-27T13:05:35.389Z,27.57
2019-02-27T13:06:37.276Z,27.67
2019-02-27T13:07:35.328Z,28.07
2019-02-27T13:08:35.318Z,28.38
2019-02-27T13:09:35.308Z,28.50
2019-02-27T13:10:35.318Z,28.69
2019-02-27T13:11:35.306Z,28.80
2019-02-27T13:12:37.217Z,28.71
2019-02-27T13:13:35.275Z,28.71
2019-02-27T13:14:35.254Z,28.72
2019-02-27T13:15:35.267Z,28.62
2019-02-27T13:16:35.233Z,28.65
2019-02-27T13:17:35.242Z,28.66
2019-02-27T13:18:35.218Z,28.77
2019-02-27T13:19:35.205Z,28.86
2019-02-27T13:20:35.210Z,28.98
2019-02-27T13:21:35.183Z,29.69
2019-02-27T13:22:35.177Z,29.90
2019-02-27T13:23:36.322Z,29.79
2019-02-27T13:24:35.159Z,30.21
2019-02-27T13:25:35.163Z,29.81
2019-02-27T13:26:35.426Z,29.82
2019-02-27T13:27:35.121Z,29.81
2019-02-27T13:28:35.109Z,30.41
2019-02-27T13:29:35.112Z,30.11
2019-02-27T13:30:35.115Z,30.31
2019-02-27T13:31:35.076Z,30.21
2019-02-27T13:32:35.071Z,30.41
2019-02-27T13:33:35.456Z,30.63
2019-02-27T13:34:35.044Z,31.01
2019-02-27T13:35:35.063Z,30.81
2019-02-27T13:36:35.026Z,30.43
2019-02-27T13:37:35.015Z,30.52
2019-02-27T13:38:36.883Z,30.63
2019-02-27T13:39:35.006Z,30.93
2019-02-27T13:40:35.761Z,29.62
2019-02-27T13:41:34.983Z,29.32
2019-02-27T13:42:34.963Z,29.33
2019-02-27T13:43:34.956Z,29.74
2019-02-27T13:44:35.311Z,29.33
2019-02-27T13:45:34.950Z,29.74
2019-02-27T13:46:34.918Z,29.94
2019-02-27T13:47:34.917Z,29.33
2019-02-27T13:48:37.356Z,29.13
2019-02-27T13:49:34.891Z,28.53
2019-02-27T13:50:34.878Z,29.13
2019-02-27T13:51:37.207Z,29.33
2019-02-27T13:52:34.854Z,29.63
2019-02-27T13:53:34.853Z,28.53
2019-02-27T13:54:38.025Z,29.53
2019-02-27T13:55:34.824Z,28.73
2019-02-27T13:56:34.835Z,28.73
2019-02-27T13:57:34.798Z,28.63
2019-02-27T13:58:36.459Z,28.93
2019-02-27T13:59:35.905Z,28.93
2019-02-27T14:00:34.768Z,29.03
2019-02-27T14:01:35.048Z,28.73
2019-02-27T14:02:38.256Z,28.83
2019-02-27T14:03:35.534Z,29.33
2019-02-27T14:04:34.722Z,29.83
2019-02-27T14:05:35.993Z,29.94
2019-02-27T14:06:34.728Z,29.94
2019-02-27T14:07:34.697Z,28.93
2019-02-27T14:08:34.677Z,29.44
2019-02-27T14:09:34.667Z,29.53
2019-02-27T14:10:34.665Z,29.65
2019-02-27T14:11:34.676Z,29.83
2019-02-27T14:12:36.396Z,29.74
2019-02-27T14:13:34.623Z,29.65
2019-02-27T14:14:34.618Z,29.65
2019-02-27T14:15:34.602Z,29.95
2019-02-27T14:16:35.403Z,29.95
2019-02-27T14:17:34.594Z,28.85
2019-02-27T14:18:34.569Z,28.85
2019-02-27T14:19:36.439Z,29.14
2019-02-27T14:20:34.548Z,28.75
2019-02-27T14:21:35.600Z,28.64
2019-02-27T14:22:34.525Z,28.76
2019-02-27T14:23:34.516Z,28.55
2019-02-27T14:24:34.520Z,28.85
2019-02-27T14:25:34.494Z,29.05
2019-02-27T14:26:34.512Z,28.64
2019-02-27T14:27:34.473Z,28.44
2019-02-27T14:28:34.462Z,28.44
2019-02-27T14:29:34.451Z,28.95
2019-02-27T14:30:35.527Z,28.75
2019-02-27T14:31:34.453Z,28.85
2019-02-27T14:32:34.422Z,28.64
2019-02-27T14:33:34.409Z,28.25
2019-02-27T14:34:34.399Z,28.85
2019-02-27T14:35:36.331Z,29.16
2019-02-27T14:36:34.421Z,29.06
2019-02-27T14:37:34.367Z,29.06
2019-02-27T14:38:34.356Z,29.16
2019-02-27T14:39:34.364Z,28.86
2019-02-27T14:40:37.733Z,28.25
2019-02-27T14:41:34.343Z,28.04
2019-02-27T14:42:34.313Z,29.16
2019-02-27T14:43:34.327Z,28.56
2019-02-27T14:44:34.291Z,28.66
2019-02-27T14:45:39.430Z,28.64
2019-02-27T14:46:35.288Z,28.45
2019-02-27T14:47:34.259Z,28.56
2019-02-27T14:48:34.253Z,28.76
2019-02-27T14:49:34.260Z,28.96
2019-02-27T14:50:34.855Z,28.76
2019-02-27T14:51:34.243Z,28.76
2019-02-27T14:52:34.206Z,28.86
2019-02-27T14:53:34.196Z,28.45
2019-02-27T14:54:34.192Z,28.96
2019-02-27T14:55:35.929Z,28.96
2019-02-27T14:56:34.196Z,29.16
2019-02-27T14:57:34.166Z,28.76
2019-02-27T14:58:34.142Z,28.96
2019-02-27T14:59:34.230Z,29.06
2019-02-27T15:00:34.125Z,28.66
2019-02-27T15:01:34.142Z,28.76
2019-02-27T15:02:34.117Z,29.06
2019-02-27T15:03:34.094Z,28.86
2019-02-27T15:04:34.081Z,29.77
2019-02-27T15:05:34.072Z,28.86
2019-02-27T15:06:34.102Z,29.46
2019-02-27T15:07:34.054Z,29.47
2019-02-27T15:08:34.043Z,29.86
2019-02-27T15:09:36.561Z,29.98
2019-02-27T15:10:34.020Z,29.58
2019-02-27T15:11:34.031Z,29.86
2019-02-27T15:12:34.016Z,29.68
2019-02-27T15:13:33.996Z,30.08
2019-02-27T15:14:33.974Z,29.68
2019-02-27T15:15:33.965Z,29.68
2019-02-27T15:16:33.954Z,30.18
2019-02-27T15:17:33.974Z,29.78
2019-02-27T15:18:33.937Z,30.88
2019-02-27T15:19:35.444Z,29.68
2019-02-27T15:20:34.654Z,30.28
2019-02-27T15:21:33.902Z,29.99
2019-02-27T15:22:33.907Z,29.49
2019-02-27T15:23:33.905Z,29.49
2019-02-27T15:24:34.936Z,29.59
2019-02-27T15:25:33.876Z,29.59
2019-02-27T15:26:33.854Z,29.99
2019-02-27T15:27:33.863Z,29.49
2019-02-27T15:28:34.063Z,30.19
2019-02-27T15:29:33.843Z,29.69
2019-02-27T15:30:33.815Z,30.70
2019-02-27T15:31:33.796Z,29.49
2019-02-27T15:32:33.924Z,30.40
2019-02-27T15:33:35.927Z,30.10
2019-02-27T15:34:33.762Z,30.30
2019-02-27T15:35:33.752Z,30.80
2019-02-27T15:36:33.753Z,30.40
2019-02-27T15:37:37.183Z,30.40
2019-02-27T15:38:33.727Z,30.40
2019-02-27T15:39:33.724Z,31.00
2019-02-27T15:40:33.700Z,30.80
2019-02-27T15:41:35.446Z,31.51
2019-02-27T15:42:33.699Z,31.10
2019-02-27T15:43:33.672Z,31.72
2019-02-27T15:44:34.518Z,30.31
2019-02-27T15:45:33.666Z,30.51
2019-02-27T15:46:33.647Z,30.21
2019-02-27T15:47:33.858Z,30.51
2019-02-27T15:48:33.629Z,30.21
2019-02-27T15:49:33.606Z,30.11
2019-02-27T15:50:33.604Z,30.62
2019-02-27T15:51:33.584Z,29.61
2019-02-27T15:52:34.219Z,28.71
2019-02-27T15:53:33.568Z,28.81
2019-02-27T15:54:33.555Z,29.52
2019-02-27T15:55:35.236Z,29.42
2019-02-27T15:56:33.552Z,28.71
2019-02-27T15:57:33.574Z,29.11
2019-02-27T15:58:33.511Z,29.11
2019-02-27T15:59:33.521Z,28.91
2019-02-27T16:00:33.490Z,30.63
2019-02-27T16:01:33.500Z,29.82
2019-02-27T16:02:34.027Z,29.82
2019-02-27T16:03:33.468Z,30.63
2019-02-27T16:04:33.453Z,29.82
2019-02-27T16:05:33.439Z,30.52
2019-02-27T16:06:33.442Z,30.32
2019-02-27T16:07:33.437Z,29.62
2019-02-27T16:08:33.417Z,29.74
2019-02-27T16:09:33.399Z,34.17
2019-02-27T16:10:33.388Z,32.66
2019-02-27T16:11:33.402Z,31.95
2019-02-27T16:12:33.390Z,31.85
2019-02-27T16:13:34.686Z,30.54
2019-02-27T16:14:33.369Z,32.46
2019-02-27T16:15:33.334Z,31.75
2019-02-27T16:16:33.325Z,32.46
2019-02-27T16:17:33.333Z,31.46
2019-02-27T16:18:33.940Z,31.96
2019-02-27T16:19:33.307Z,32.17
2019-02-27T16:20:33.287Z,32.27
2019-02-27T16:21:33.319Z,31.76
2019-02-27T16:22:33.298Z,32.78
2019-02-27T16:23:37.203Z,32.67
2019-02-27T16:24:33.239Z,33.48
2019-02-27T16:25:33.240Z,33.07
2019-02-27T16:26:33.234Z,34.08
2019-02-27T16:27:35.385Z,33.80
2019-02-27T16:28:33.228Z,32.99
2019-02-27T16:29:33.205Z,32.49
2019-02-27T16:30:33.181Z,33.29
2019-02-27T16:31:33.182Z,31.88
2019-02-27T16:32:33.159Z,31.88
2019-02-27T16:33:33.174Z,32.59
2019-02-27T16:34:34.085Z,32.49
2019-02-27T16:35:33.133Z,31.78
2019-02-27T16:36:36.144Z,31.98
2019-02-27T16:37:33.116Z,33.50
2019-02-27T16:38:33.113Z,32.29
2019-02-27T16:39:33.080Z,32.18
2019-02-27T16:40:33.077Z,31.48
2019-02-27T16:41:33.065Z,34.12
2019-02-27T16:42:33.057Z,33.92
2019-02-27T16:43:33.061Z,33.11
2019-02-27T16:44:33.033Z,33.51
2019-02-27T16:45:36.480Z,33.50
2019-02-27T16:46:33.009Z,34.92
2019-02-27T16:47:33.015Z,34.12
2019-02-27T16:48:34.501Z,35.33
2019-02-27T16:49:32.975Z,34.22
2019-02-27T16:50:32.966Z,37.85
2019-02-27T16:51:34.685Z,36.05
2019-02-27T16:52:32.946Z,35.93
2019-02-27T16:53:32.977Z,35.65
2019-02-27T16:54:32.923Z,35.65
2019-02-27T16:55:35.988Z,35.65
2019-02-27T16:56:32.944Z,36.25
2019-02-27T16:57:32.891Z,36.55
2019-02-27T16:58:33.767Z,39.50
2019-02-27T16:59:32.874Z,35.97
2019-02-27T17:00:32.870Z,36.68
2019-02-27T17:01:32.847Z,37.38
2019-02-27T17:02:35.502Z,37.60
2019-02-27T17:03:33.852Z,37.18
2019-02-27T17:04:34.286Z,37.70
2019-02-27T17:05:32.804Z,36.79
2019-02-27T17:06:32.794Z,37.50
2019-02-27T17:07:32.781Z,37.40
2019-02-27T17:08:33.040Z,36.41
2019-02-27T17:09:32.763Z,39.04
2019-02-27T17:10:32.762Z,38.23
2019-02-27T17:11:33.203Z,38.63
2019-02-27T17:12:32.732Z,37.82
2019-02-27T17:13:32.737Z,37.72
2019-02-27T17:14:32.710Z,38.33
2019-02-27T17:15:35.867Z,38.45
2019-02-27T17:16:32.685Z,38.45
2019-02-27T17:17:32.676Z,39.56
2019-02-27T17:18:32.689Z,39.46
2019-02-27T17:19:33.082Z,38.95
2019-02-27T17:20:32.648Z,39.28
2019-02-27T17:21:32.643Z,38.16
2019-02-27T17:22:33.323Z,38.46
2019-02-27T17:23:32.638Z,38.97
2019-02-27T17:24:32.610Z,39.90
2019-02-27T17:25:32.590Z,40.31
2019-02-27T17:26:35.295Z,39.70
2019-02-27T17:27:33.582Z,41.32
2019-02-27T17:28:32.576Z,42.13
2019-02-27T17:29:32.545Z,41.24
2019-02-27T17:30:36.638Z,40.83
2019-02-27T17:31:32.525Z,42.05
2019-02-27T17:32:32.523Z,41.03
2019-02-27T17:33:35.119Z,41.05
2019-02-27T17:34:35.391Z,40.34
2019-02-27T17:35:32.482Z,40.45
2019-02-27T17:36:32.645Z,40.24
2019-02-27T17:37:32.467Z,41.05
2019-02-27T17:38:32.503Z,40.24
2019-02-27T17:39:32.442Z,41.07
2019-02-27T17:40:36.315Z,40.06
2019-02-27T17:41:33.414Z,42.19
2019-02-27T17:42:32.411Z,41.58
2019-02-27T17:43:32.416Z,42.19
2019-02-27T17:44:35.303Z,40.97
2019-02-27T17:45:33.377Z,41.40
2019-02-27T17:46:32.366Z,42.39
2019-02-27T17:47:32.350Z,41.91
2019-02-27T17:48:32.363Z,42.82
2019-02-27T17:49:32.341Z,41.80
2019-02-27T17:50:32.442Z,43.93
2019-02-27T17:51:32.310Z,44.95
2019-02-27T17:52:32.317Z,43.55